Pacific Titan — WCZ6844 — position and weather

sailwx.info

Track history (hours):
 
Tides and Currents Weather Stations Pressure Air Temp Water Temp Dewpoint Dewpoint Depression Visibility Wind Speed Wind Dir Waves Ship Positions

Pacific Titan

Owner: WESTERN TOWBOAT CO, SEATTLE, WA. More information available from US FCC via Universal Licensing System and Coast Guard Vessel Documentation Center.

Last reported at 2018-May-24 14:00 UTC. Time now 2018-May-24 14:01 UTC.
Position N 49°01' W 123°16'.

Type: Tow > 200 m length. MMSI: 338855000.

Date/timePositionNaut miles runAvg speedWind from/ knotsBaromVisibWave heightAir tempDewpointWater temp
2018-May-24 14:00N 49°01' W 123°16'4 9.0
2018-May-24 13:30N 48°59' W 123°11'38 8.5
2018-May-24 08:59N 48°25' W 122°44'18 6.8
2018-May-24 06:18N 48°07' W 122°39'2 7.6
2018-May-24 06:00N 48°04' W 122°38'5 7.3
2018-May-24 05:19N 47°60' W 122°36'3 7.7
2018-May-24 05:00N 47°58' W 122°34'4 8.6
2018-May-24 04:30N 47°55' W 122°29'4 9.0
2018-May-24 04:00N 47°51' W 122°27'5 9.2
2018-May-24 03:30N 47°46' W 122°26'4 8.6
2018-May-24 03:00N 47°42' W 122°27'4 8.4
2018-May-24 02:30N 47°38' W 122°25'3 7.0
2018-May-24 02:00N 47°36' W 122°21'2 4.2
2018-May-24 01:30N 47°34' W 122°21'1 1.3
2018-May-24 01:00N 47°33' W 122°21'0 0.0
2018-May-24 00:30N 47°33' W 122°21'0 0.0
2018-May-24 00:00N 47°33' W 122°21'0 0.0
2018-May-23 23:30N 47°33' W 122°21'3 5.9
2018-May-23 23:00N 47°36' W 122°22'510.2
2018-May-23 22:30N 47°40' W 122°26'1 1.9
2018-May-23 22:00N 47°41' W 122°25'1 2.4
2018-May-23 21:30N 47°40' W 122°23'1 2.2
2018-May-23 21:00N 47°39' W 122°22'0 0.0
2018-May-23 20:29N 47°39' W 122°22'0 0.0
2018-May-22 12:47N 47°39' W 122°22'1 4.8
2018-May-22 12:29N 47°40' W 122°24'1 2.9
2018-May-22 12:00N 47°40' W 122°26'510.9
2018-May-22 11:30N 47°35' W 122°22'0 0.1
2018-May-22 11:00N 47°35' W 122°22'0 0.2
2018-May-22 10:30N 47°35' W 122°22'1 2.8
2018-May-22 10:00N 47°36' W 122°23'5 9.8
2018-May-22 09:30N 47°40' W 122°28'510.5
2018-May-22 09:00N 47°45' W 122°27'510.2
2018-May-22 08:30N 47°50' W 122°28'5 9.7
2018-May-22 08:00N 47°55' W 122°30'510.2
2018-May-22 07:29N 47°59' W 122°36'6 9.4
2018-May-22 06:51N 48°04' W 122°40'4 9.7
2018-May-22 06:27N 48°08' W 122°42'711.5
2018-May-22 05:51N 48°13' W 122°49'410.3
2018-May-22 05:27N 48°17' W 122°48'4 9.8
2018-May-22 05:00N 48°21' W 122°46'4 8.9
2018-May-22 04:30N 48°26' W 122°45'4 7.7
2018-May-22 04:00N 48°29' W 122°44'3 7.0
2018-May-22 03:30N 48°33' W 122°45'3 6.9
2018-May-22 03:00N 48°36' W 122°45'4 8.2
2018-May-22 02:30N 48°40' W 122°44'6 9.0
2018-May-22 01:52N 48°45' W 122°48'410.1
2018-May-22 01:28N 48°47' W 122°53'510.3
2018-May-22 01:00N 48°50' W 122°60'510.0
2018-May-22 00:29N 48°53' W 123°06'510.0
2018-May-22 00:00N 48°56' W 123°11'510.6
2018-May-21 23:30N 48°59' W 123°17'510.5
2018-May-21 23:00N 49°03' W 123°24'5 9.7
2018-May-21 22:30N 49°06' W 123°29'12 9.9
2018-May-21 21:16N 49°14' W 123°43'510.5
2018-May-21 20:47N 49°18' W 123°49'310.5
2018-May-21 20:28N 49°20' W 123°53'510.2
2018-May-21 19:59N 49°23' W 123°58'5 9.8
2018-May-21 19:30N 49°26' W 124°04'12 9.7
2018-May-21 18:19N 49°33' W 124°18'3 9.8
2018-May-21 17:58N 49°34' W 124°23'510.2
2018-May-21 17:30N 49°37' W 124°29'6 9.6
2018-May-21 16:54N 49°41' W 124°36'4 9.3
2018-May-21 16:30N 49°43' W 124°40'5 9.6
2018-May-21 16:00N 49°46' W 124°46'5 9.5
2018-May-21 15:30N 49°49' W 124°52'5 9.6
2018-May-21 15:00N 49°51' W 124°58'5 9.6
2018-May-21 14:29N 49°54' W 125°04'510.0
2018-May-21 14:00N 49°58' W 125°10'611.2
2018-May-21 13:30N 50°02' W 125°14'510.5
2018-May-21 13:00N 50°07' W 125°19'4 8.9
2018-May-21 12:30N 50°11' W 125°22'5 9.3
2018-May-21 12:00N 50°15' W 125°23'5 9.2
2018-May-21 11:30N 50°20' W 125°26'9 8.0
2018-May-21 10:21N 50°22' W 125°40'18 7.3
2018-May-21 07:50N 50°28' W 126°07'8 8.9
2018-May-21 06:58N 50°30' W 126°19'5 9.2
2018-May-21 06:25N 50°30' W 126°27'4 9.2
2018-May-21 05:57N 50°30' W 126°34'4 9.3
2018-May-21 05:29N 50°32' W 126°40'4 9.0
2018-May-21 04:59N 50°36' W 126°43'610.4
2018-May-21 04:26N 50°40' W 126°50'510.6
2018-May-21 04:00N 50°42' W 126°57'5 9.9
2018-May-21 03:29N 50°44' W 127°04'5 9.7
2018-May-21 03:00N 50°47' W 127°10'4 8.8
2018-May-21 02:30N 50°50' W 127°15'510.2
2018-May-21 01:59N 50°53' W 127°21'511.1
2018-May-21 01:30N 50°57' W 127°28'510.4
2018-May-21 01:00N 50°59' W 127°35'510.0
2018-May-21 00:30N 51°03' W 127°40'5 9.7
2018-May-20 23:57N 51°07' W 127°47'510.3
2018-May-20 23:30N 51°10' W 127°51'510.2
2018-May-20 23:00N 51°15' W 127°54'510.3
2018-May-20 22:30N 51°20' W 127°57'510.0
2018-May-20 22:00N 51°24' W 128°01'5 9.8
2018-May-20 21:30N 51°27' W 128°07'5 9.6
2018-May-20 21:00N 51°30' W 128°13'5 9.2
2018-May-20 20:31N 51°33' W 128°18'5 9.2
2018-May-20 20:00N 51°38' W 128°21'5 9.4
2018-May-20 19:30N 51°42' W 128°24'5 9.5
2018-May-20 19:01N 51°46' W 128°28'5 9.8
2018-May-20 18:30N 51°50' W 128°32'510.1
2018-May-20 18:00N 51°55' W 128°35'510.2
2018-May-20 17:30N 51°60' W 128°38'510.3
2018-May-20 17:00N 52°05' W 128°41'510.0
2018-May-20 16:30N 52°09' W 128°44'87 9.3
2018-May-20 07:09N 53°25' W 129°55'6 9.7
2018-May-20 06:33N 53°29' W 130°02'3 9.6
2018-May-20 06:14N 53°32' W 130°03'310.3
2018-May-20 05:59N 53°35' W 130°04'1010.1
2018-May-20 04:59N 53°43' W 130°13'6 9.9
2018-May-20 04:21N 53°49' W 130°17'3 9.7
2018-May-20 04:00N 53°52' W 130°18'510.4
2018-May-20 03:30N 53°56' W 130°13'5 9.9
2018-May-20 03:00N 54°01' W 130°14'5 9.6
2018-May-20 02:30N 54°05' W 130°19'510.0
2018-May-20 02:00N 54°09' W 130°25'5 9.9
2018-May-20 01:30N 54°13' W 130°30'5 9.9
2018-May-20 01:01N 54°17' W 130°34'510.1
2018-May-20 00:30N 54°22' W 130°37'510.3
2018-May-19 23:59N 54°27' W 130°40'510.2
2018-May-19 23:30N 54°31' W 130°43'510.5
2018-May-19 23:00N 54°37' W 130°44'5 9.9
2018-May-19 22:29N 54°41' W 130°48'810.2
2018-May-19 21:43N 54°46' W 130°58'  
2018-May-14 19:30N 54°50' W 130°60'4 8.6
2018-May-14 19:00N 54°46' W 130°56'4 8.4
2018-May-14 18:30N 54°43' W 130°51'4 8.7
2018-May-14 18:00N 54°40' W 130°46'5 9.3
2018-May-14 17:30N 54°35' W 130°44'5 9.5
2018-May-14 17:00N 54°30' W 130°42'5 9.6
2018-May-14 16:30N 54°26' W 130°39'5 9.3
2018-May-14 16:00N 54°21' W 130°37'4 9.0
2018-May-14 15:30N 54°17' W 130°34'4 9.0
2018-May-14 15:00N 54°13' W 130°30'5 9.5
2018-May-14 14:30N 54°09' W 130°26'5 9.6
2018-May-14 14:00N 54°06' W 130°20'  
Track history (hours):
 
Tides and Currents Weather Stations Pressure Air Temp Water Temp Dewpoint Dewpoint Depression Visibility Wind Speed Wind Dir Waves Ship Positions

Pacific Titan

Owner: WESTERN TOWBOAT CO, SEATTLE, WA. More information available from US FCC via Universal Licensing System and Coast Guard Vessel Documentation Center.

Last reported at 2018-May-24 14:00 UTC. Time now 2018-May-24 14:01 UTC.
Position N 49°01' W 123°16'.

Type: Tow > 200 m length. MMSI: 338855000.

Date/timePositionNaut miles runAvg speedWind from/ knotsBaromVisibWave heightAir tempDewpointWater temp
2018-May-24 14:00N 49°01' W 123°16'4 9.0
2018-May-24 13:30N 48°59' W 123°11'38 8.5
2018-May-24 08:59N 48°25' W 122°44'18 6.8
2018-May-24 06:18N 48°07' W 122°39'2 7.6
2018-May-24 06:00N 48°04' W 122°38'5 7.3
2018-May-24 05:19N 47°60' W 122°36'3 7.7
2018-May-24 05:00N 47°58' W 122°34'4 8.6
2018-May-24 04:30N 47°55' W 122°29'4 9.0
2018-May-24 04:00N 47°51' W 122°27'5 9.2
2018-May-24 03:30N 47°46' W 122°26'4 8.6
2018-May-24 03:00N 47°42' W 122°27'4 8.4
2018-May-24 02:30N 47°38' W 122°25'3 7.0
2018-May-24 02:00N 47°36' W 122°21'2 4.2
2018-May-24 01:30N 47°34' W 122°21'1 1.3
2018-May-24 01:00N 47°33' W 122°21'0 0.0
2018-May-24 00:30N 47°33' W 122°21'0 0.0
2018-May-24 00:00N 47°33' W 122°21'0 0.0
2018-May-23 23:30N 47°33' W 122°21'3 5.9
2018-May-23 23:00N 47°36' W 122°22'510.2
2018-May-23 22:30N 47°40' W 122°26'1 1.9
2018-May-23 22:00N 47°41' W 122°25'1 2.4
2018-May-23 21:30N 47°40' W 122°23'1 2.2
2018-May-23 21:00N 47°39' W 122°22'0 0.0
2018-May-23 20:29N 47°39' W 122°22'0 0.0
2018-May-22 12:47N 47°39' W 122°22'1 4.8
2018-May-22 12:29N 47°40' W 122°24'1 2.9
2018-May-22 12:00N 47°40' W 122°26'510.9
2018-May-22 11:30N 47°35' W 122°22'0 0.1
2018-May-22 11:00N 47°35' W 122°22'0 0.2
2018-May-22 10:30N 47°35' W 122°22'1 2.8
2018-May-22 10:00N 47°36' W 122°23'5 9.8
2018-May-22 09:30N 47°40' W 122°28'510.5
2018-May-22 09:00N 47°45' W 122°27'510.2
2018-May-22 08:30N 47°50' W 122°28'5 9.7
2018-May-22 08:00N 47°55' W 122°30'510.2
2018-May-22 07:29N 47°59' W 122°36'6 9.4
2018-May-22 06:51N 48°04' W 122°40'4 9.7
2018-May-22 06:27N 48°08' W 122°42'711.5
2018-May-22 05:51N 48°13' W 122°49'410.3
2018-May-22 05:27N 48°17' W 122°48'4 9.8
2018-May-22 05:00N 48°21' W 122°46'4 8.9
2018-May-22 04:30N 48°26' W 122°45'4 7.7
2018-May-22 04:00N 48°29' W 122°44'3 7.0
2018-May-22 03:30N 48°33' W 122°45'3 6.9
2018-May-22 03:00N 48°36' W 122°45'4 8.2
2018-May-22 02:30N 48°40' W 122°44'6 9.0
2018-May-22 01:52N 48°45' W 122°48'410.1
2018-May-22 01:28N 48°47' W 122°53'510.3
2018-May-22 01:00N 48°50' W 122°60'510.0
2018-May-22 00:29N 48°53' W 123°06'510.0
2018-May-22 00:00N 48°56' W 123°11'510.6
2018-May-21 23:30N 48°59' W 123°17'510.5
2018-May-21 23:00N 49°03' W 123°24'5 9.7
2018-May-21 22:30N 49°06' W 123°29'12 9.9
2018-May-21 21:16N 49°14' W 123°43'510.5
2018-May-21 20:47N 49°18' W 123°49'310.5
2018-May-21 20:28N 49°20' W 123°53'510.2
2018-May-21 19:59N 49°23' W 123°58'5 9.8
2018-May-21 19:30N 49°26' W 124°04'12 9.7
2018-May-21 18:19N 49°33' W 124°18'3 9.8
2018-May-21 17:58N 49°34' W 124°23'510.2
2018-May-21 17:30N 49°37' W 124°29'6 9.6
2018-May-21 16:54N 49°41' W 124°36'4 9.3
2018-May-21 16:30N 49°43' W 124°40'5 9.6
2018-May-21 16:00N 49°46' W 124°46'5 9.5
2018-May-21 15:30N 49°49' W 124°52'5 9.6
2018-May-21 15:00N 49°51' W 124°58'5 9.6
2018-May-21 14:29N 49°54' W 125°04'510.0
2018-May-21 14:00N 49°58' W 125°10'611.2
2018-May-21 13:30N 50°02' W 125°14'510.5
2018-May-21 13:00N 50°07' W 125°19'4 8.9
2018-May-21 12:30N 50°11' W 125°22'5 9.3
2018-May-21 12:00N 50°15' W 125°23'5 9.2
2018-May-21 11:30N 50°20' W 125°26'9 8.0
2018-May-21 10:21N 50°22' W 125°40'18 7.3
2018-May-21 07:50N 50°28' W 126°07'8 8.9
2018-May-21 06:58N 50°30' W 126°19'5 9.2
2018-May-21 06:25N 50°30' W 126°27'4 9.2
2018-May-21 05:57N 50°30' W 126°34'4 9.3
2018-May-21 05:29N 50°32' W 126°40'4 9.0
2018-May-21 04:59N 50°36' W 126°43'610.4
2018-May-21 04:26N 50°40' W 126°50'510.6
2018-May-21 04:00N 50°42' W 126°57'5 9.9
2018-May-21 03:29N 50°44' W 127°04'5 9.7
2018-May-21 03:00N 50°47' W 127°10'4 8.8
2018-May-21 02:30N 50°50' W 127°15'510.2
2018-May-21 01:59N 50°53' W 127°21'511.1
2018-May-21 01:30N 50°57' W 127°28'510.4
2018-May-21 01:00N 50°59' W 127°35'510.0
2018-May-21 00:30N 51°03' W 127°40'5 9.7
2018-May-20 23:57N 51°07' W 127°47'510.3
2018-May-20 23:30N 51°10' W 127°51'510.2
2018-May-20 23:00N 51°15' W 127°54'510.3
2018-May-20 22:30N 51°20' W 127°57'510.0
2018-May-20 22:00N 51°24' W 128°01'5 9.8
2018-May-20 21:30N 51°27' W 128°07'5 9.6
2018-May-20 21:00N 51°30' W 128°13'5 9.2
2018-May-20 20:31N 51°33' W 128°18'5 9.2
2018-May-20 20:00N 51°38' W 128°21'5 9.4
2018-May-20 19:30N 51°42' W 128°24'5 9.5
2018-May-20 19:01N 51°46' W 128°28'5 9.8
2018-May-20 18:30N 51°50' W 128°32'510.1
2018-May-20 18:00N 51°55' W 128°35'510.2
2018-May-20 17:30N 51°60' W 128°38'510.3
2018-May-20 17:00N 52°05' W 128°41'510.0
2018-May-20 16:30N 52°09' W 128°44'87 9.3
2018-May-20 07:09N 53°25' W 129°55'6 9.7
2018-May-20 06:33N 53°29' W 130°02'3 9.6
2018-May-20 06:14N 53°32' W 130°03'310.3
2018-May-20 05:59N 53°35' W 130°04'1010.1
2018-May-20 04:59N 53°43' W 130°13'6 9.9
2018-May-20 04:21N 53°49' W 130°17'3 9.7
2018-May-20 04:00N 53°52' W 130°18'510.4
2018-May-20 03:30N 53°56' W 130°13'5 9.9
2018-May-20 03:00N 54°01' W 130°14'5 9.6
2018-May-20 02:30N 54°05' W 130°19'510.0
2018-May-20 02:00N 54°09' W 130°25'5 9.9
2018-May-20 01:30N 54°13' W 130°30'5 9.9
2018-May-20 01:01N 54°17' W 130°34'510.1
2018-May-20 00:30N 54°22' W 130°37'510.3
2018-May-19 23:59N 54°27' W 130°40'510.2
2018-May-19 23:30N 54°31' W 130°43'510.5
2018-May-19 23:00N 54°37' W 130°44'5 9.9
2018-May-19 22:29N 54°41' W 130°48'810.2
2018-May-19 21:43N 54°46' W 130°58'  
2018-May-14 19:30N 54°50' W 130°60'4 8.6
2018-May-14 19:00N 54°46' W 130°56'4 8.4
2018-May-14 18:30N 54°43' W 130°51'4 8.7
2018-May-14 18:00N 54°40' W 130°46'5 9.3
2018-May-14 17:30N 54°35' W 130°44'5 9.5
2018-May-14 17:00N 54°30' W 130°42'5 9.6
2018-May-14 16:30N 54°26' W 130°39'5 9.3
2018-May-14 16:00N 54°21' W 130°37'4 9.0
2018-May-14 15:30N 54°17' W 130°34'4 9.0
2018-May-14 15:00N 54°13' W 130°30'5 9.5
2018-May-14 14:30N 54°09' W 130°26'5 9.6
2018-May-14 14:00N 54°06' W 130°20'  

Dump ship's entire track history